sensor_id;sensor_type;location;lat;lon;timestamp;P1;durP1;ratioP1;P2;durP2;ratioP2
47539;SDS011;33280;52.152;21.052;2023-06-26T00:01:31;11.13;;;6.47;;
47539;SDS011;33280;52.152;21.052;2023-06-26T00:03:59;13.07;;;6.57;;
47539;SDS011;33280;52.152;21.052;2023-06-26T00:06:27;10.37;;;6.50;;
47539;SDS011;33280;52.152;21.052;2023-06-26T00:08:54;9.97;;;6.30;;
47539;SDS011;33280;52.152;21.052;2023-06-26T00:11:22;11.23;;;7.10;;
47539;SDS011;33280;52.152;21.052;2023-06-26T00:13:49;12.20;;;7.03;;
47539;SDS011;33280;52.152;21.052;2023-06-26T00:16:16;13.00;;;6.50;;
47539;SDS011;33280;52.152;21.052;2023-06-26T00:18:43;10.40;;;6.60;;
47539;SDS011;33280;52.152;21.052;2023-06-26T00:21:10;13.07;;;6.60;;
47539;SDS011;33280;52.152;21.052;2023-06-26T00:23:37;11.00;;;6.60;;
47539;SDS011;33280;52.152;21.052;2023-06-26T00:26:06;13.23;;;6.80;;
47539;SDS011;33280;52.152;21.052;2023-06-26T00:28:33;10.60;;;6.43;;
47539;SDS011;33280;52.152;21.052;2023-06-26T00:30:59;10.07;;;6.43;;
47539;SDS011;33280;52.152;21.052;2023-06-26T00:33:26;10.03;;;6.40;;
47539;SDS011;33280;52.152;21.052;2023-06-26T00:35:53;12.13;;;6.50;;
47539;SDS011;33280;52.152;21.052;2023-06-26T00:38:22;10.73;;;6.70;;
47539;SDS011;33280;52.152;21.052;2023-06-26T00:40:49;9.83;;;6.63;;
47539;SDS011;33280;52.152;21.052;2023-06-26T00:43:16;11.70;;;6.90;;
47539;SDS011;33280;52.152;21.052;2023-06-26T00:45:43;10.57;;;7.07;;
47539;SDS011;33280;52.152;21.052;2023-06-26T00:48:10;13.43;;;6.87;;
47539;SDS011;33280;52.152;21.052;2023-06-26T00:50:38;12.03;;;6.77;;
47539;SDS011;33280;52.152;21.052;2023-06-26T00:53:07;10.53;;;7.00;;
47539;SDS011;33280;52.152;21.052;2023-06-26T00:55:38;12.73;;;7.10;;
47539;SDS011;33280;52.152;21.052;2023-06-26T00:58:05;9.90;;;6.60;;
47539;SDS011;33280;52.152;21.052;2023-06-26T01:00:32;11.03;;;6.70;;
47539;SDS011;33280;52.152;21.052;2023-06-26T01:02:59;11.77;;;6.47;;
47539;SDS011;33280;52.152;21.052;2023-06-26T01:05:27;9.63;;;6.50;;
47539;SDS011;33280;52.152;21.052;2023-06-26T01:07:56;9.30;;;6.40;;
47539;SDS011;33280;52.152;21.052;2023-06-26T01:10:24;10.73;;;6.70;;
47539;SDS011;33280;52.152;21.052;2023-06-26T01:12:54;12.50;;;6.90;;
47539;SDS011;33280;52.152;21.052;2023-06-26T01:15:23;10.80;;;6.40;;
47539;SDS011;33280;52.152;21.052;2023-06-26T01:17:50;14.07;;;7.33;;
47539;SDS011;33280;52.152;21.052;2023-06-26T01:20:18;11.20;;;7.00;;
47539;SDS011;33280;52.152;21.052;2023-06-26T01:25:48;12.93;;;6.53;;
47539;SDS011;33280;52.152;21.052;2023-06-26T01:28:41;12.87;;;6.53;;
47539;SDS011;33280;52.152;21.052;2023-06-26T01:31:10;9.07;;;6.27;;
47539;SDS011;33280;52.152;21.052;2023-06-26T01:33:38;12.60;;;6.80;;
47539;SDS011;33280;52.152;21.052;2023-06-26T01:36:06;13.87;;;6.90;;
47539;SDS011;33280;52.152;21.052;2023-06-26T01:38:34;14.13;;;7.13;;
47539;SDS011;33280;52.152;21.052;2023-06-26T01:41:01;11.20;;;6.80;;
47539;SDS011;33280;52.152;21.052;2023-06-26T01:46:34;11.10;;;6.73;;
47539;SDS011;33280;52.152;21.052;2023-06-26T01:49:20;13.57;;;6.80;;
47539;SDS011;33280;52.152;21.052;2023-06-26T01:51:58;12.00;;;7.30;;
47539;SDS011;33280;52.152;21.052;2023-06-26T01:54:47;14.97;;;7.03;;
47539;SDS011;33280;52.152;21.052;2023-06-26T01:57:33;13.07;;;7.23;;
47539;SDS011;33280;52.152;21.052;2023-06-26T02:00:02;10.40;;;6.80;;
47539;SDS011;33280;52.152;21.052;2023-06-26T02:02:30;13.87;;;7.37;;
47539;SDS011;33280;52.152;21.052;2023-06-26T02:04:57;10.30;;;6.80;;
47539;SDS011;33280;52.152;21.052;2023-06-26T02:07:24;10.70;;;6.53;;
47539;SDS011;33280;52.152;21.052;2023-06-26T02:09:51;14.90;;;7.43;;
47539;SDS011;33280;52.152;21.052;2023-06-26T02:12:18;11.20;;;6.97;;
47539;SDS011;33280;52.152;21.052;2023-06-26T02:14:45;11.43;;;7.13;;
47539;SDS011;33280;52.152;21.052;2023-06-26T02:17:11;10.30;;;6.57;;
47539;SDS011;33280;52.152;21.052;2023-06-26T02:19:38;11.57;;;7.37;;
47539;SDS011;33280;52.152;21.052;2023-06-26T02:22:14;12.60;;;7.20;;
47539;SDS011;33280;52.152;21.052;2023-06-26T02:24:42;13.60;;;7.40;;
47539;SDS011;33280;52.152;21.052;2023-06-26T02:27:10;11.57;;;7.50;;
47539;SDS011;33280;52.152;21.052;2023-06-26T02:29:37;11.80;;;7.17;;
47539;SDS011;33280;52.152;21.052;2023-06-26T02:32:06;14.63;;;7.57;;
47539;SDS011;33280;52.152;21.052;2023-06-26T02:34:34;13.03;;;7.97;;
47539;SDS011;33280;52.152;21.052;2023-06-26T02:37:01;17.33;;;7.70;;
47539;SDS011;33280;52.152;21.052;2023-06-26T02:39:28;20.10;;;8.37;;
47539;SDS011;33280;52.152;21.052;2023-06-26T02:41:55;11.00;;;7.50;;
47539;SDS011;33280;52.152;21.052;2023-06-26T02:44:22;12.13;;;7.23;;
47539;SDS011;33280;52.152;21.052;2023-06-26T02:46:49;12.30;;;7.43;;
47539;SDS011;33280;52.152;21.052;2023-06-26T02:49:16;12.53;;;7.73;;
47539;SDS011;33280;52.152;21.052;2023-06-26T02:51:47;15.33;;;8.00;;
47539;SDS011;33280;52.152;21.052;2023-06-26T02:54:14;12.37;;;7.97;;
47539;SDS011;33280;52.152;21.052;2023-06-26T02:56:41;15.80;;;7.93;;
47539;SDS011;33280;52.152;21.052;2023-06-26T02:59:13;14.20;;;8.50;;
47539;SDS011;33280;52.152;21.052;2023-06-26T03:01:40;13.20;;;7.83;;
47539;SDS011;33280;52.152;21.052;2023-06-26T03:04:07;13.20;;;7.83;;
47539;SDS011;33280;52.152;21.052;2023-06-26T03:06:35;13.27;;;8.20;;
47539;SDS011;33280;52.152;21.052;2023-06-26T03:09:02;13.07;;;7.93;;
47539;SDS011;33280;52.152;21.052;2023-06-26T03:11:29;12.10;;;7.93;;
47539;SDS011;33280;52.152;21.052;2023-06-26T03:13:56;18.77;;;7.90;;
47539;SDS011;33280;52.152;21.052;2023-06-26T03:16:23;17.93;;;8.33;;
47539;SDS011;33280;52.152;21.052;2023-06-26T03:18:50;12.37;;;7.77;;
47539;SDS011;33280;52.152;21.052;2023-06-26T03:21:17;12.73;;;8.17;;
47539;SDS011;33280;52.152;21.052;2023-06-26T03:23:44;13.40;;;7.90;;
47539;SDS011;33280;52.152;21.052;2023-06-26T03:26:11;10.57;;;7.30;;
47539;SDS011;33280;52.152;21.052;2023-06-26T03:28:41;13.57;;;7.97;;
47539;SDS011;33280;52.152;21.052;2023-06-26T03:31:08;12.83;;;7.93;;
47539;SDS011;33280;52.152;21.052;2023-06-26T03:33:37;11.57;;;7.50;;
47539;SDS011;33280;52.152;21.052;2023-06-26T03:36:04;13.97;;;8.10;;
47539;SDS011;33280;52.152;21.052;2023-06-26T03:38:32;13.20;;;8.10;;
47539;SDS011;33280;52.152;21.052;2023-06-26T03:40:59;19.17;;;9.07;;
47539;SDS011;33280;52.152;21.052;2023-06-26T03:43:26;12.90;;;8.67;;
47539;SDS011;33280;52.152;21.052;2023-06-26T03:45:53;14.53;;;9.00;;
47539;SDS011;33280;52.152;21.052;2023-06-26T03:48:20;16.33;;;8.77;;
47539;SDS011;33280;52.152;21.052;2023-06-26T03:50:47;13.60;;;8.80;;
47539;SDS011;33280;52.152;21.052;2023-06-26T03:53:14;14.23;;;8.13;;
47539;SDS011;33280;52.152;21.052;2023-06-26T03:55:41;14.40;;;8.47;;
47539;SDS011;33280;52.152;21.052;2023-06-26T03:58:08;17.87;;;8.77;;
47539;SDS011;33280;52.152;21.052;2023-06-26T04:00:35;13.50;;;8.60;;
47539;SDS011;33280;52.152;21.052;2023-06-26T04:03:02;15.73;;;8.90;;
47539;SDS011;33280;52.152;21.052;2023-06-26T04:05:29;16.43;;;9.47;;
47539;SDS011;33280;52.152;21.052;2023-06-26T04:07:56;14.73;;;9.20;;
47539;SDS011;33280;52.152;21.052;2023-06-26T04:10:23;18.13;;;8.80;;
47539;SDS011;33280;52.152;21.052;2023-06-26T04:12:50;15.77;;;9.00;;
47539;SDS011;33280;52.152;21.052;2023-06-26T04:15:17;16.00;;;9.20;;
47539;SDS011;33280;52.152;21.052;2023-06-26T04:17:44;15.30;;;9.00;;
47539;SDS011;33280;52.152;21.052;2023-06-26T04:20:11;15.93;;;8.83;;
47539;SDS011;33280;52.152;21.052;2023-06-26T04:22:38;14.37;;;8.77;;
47539;SDS011;33280;52.152;21.052;2023-06-26T04:25:05;15.47;;;9.20;;
47539;SDS011;33280;52.152;21.052;2023-06-26T04:27:32;19.10;;;9.77;;
47539;SDS011;33280;52.152;21.052;2023-06-26T04:30:02;18.30;;;9.10;;
47539;SDS011;33280;52.152;21.052;2023-06-26T04:32:29;14.83;;;8.83;;
47539;SDS011;33280;52.152;21.052;2023-06-26T04:34:56;15.83;;;9.50;;
47539;SDS011;33280;52.152;21.052;2023-06-26T04:37:23;14.10;;;8.63;;
47539;SDS011;33280;52.152;21.052;2023-06-26T04:39:50;14.30;;;8.80;;
47539;SDS011;33280;52.152;21.052;2023-06-26T04:42:18;15.37;;;9.07;;
47539;SDS011;33280;52.152;21.052;2023-06-26T04:44:47;15.67;;;9.23;;
47539;SDS011;33280;52.152;21.052;2023-06-26T04:47:14;15.67;;;9.63;;
47539;SDS011;33280;52.152;21.052;2023-06-26T04:49:41;12.20;;;8.63;;
47539;SDS011;33280;52.152;21.052;2023-06-26T04:52:12;16.30;;;9.40;;
47539;SDS011;33280;52.152;21.052;2023-06-26T04:54:40;16.20;;;9.70;;
47539;SDS011;33280;52.152;21.052;2023-06-26T04:57:07;17.30;;;9.20;;
47539;SDS011;33280;52.152;21.052;2023-06-26T04:59:35;16.57;;;9.53;;
47539;SDS011;33280;52.152;21.052;2023-06-26T05:02:02;17.53;;;9.57;;
47539;SDS011;33280;52.152;21.052;2023-06-26T05:04:32;15.80;;;8.53;;
47539;SDS011;33280;52.152;21.052;2023-06-26T05:07:01;16.80;;;9.70;;
47539;SDS011;33280;52.152;21.052;2023-06-26T05:09:28;16.50;;;9.50;;
47539;SDS011;33280;52.152;21.052;2023-06-26T05:11:58;18.70;;;9.90;;
47539;SDS011;33280;52.152;21.052;2023-06-26T05:14:25;15.33;;;9.33;;
47539;SDS011;33280;52.152;21.052;2023-06-26T05:16:52;16.93;;;9.10;;
47539;SDS011;33280;52.152;21.052;2023-06-26T05:19:19;13.97;;;8.90;;
47539;SDS011;33280;52.152;21.052;2023-06-26T05:21:46;15.87;;;8.93;;
47539;SDS011;33280;52.152;21.052;2023-06-26T05:24:14;19.37;;;9.27;;
47539;SDS011;33280;52.152;21.052;2023-06-26T05:26:42;18.83;;;9.47;;
47539;SDS011;33280;52.152;21.052;2023-06-26T05:29:09;13.33;;;8.80;;
47539;SDS011;33280;52.152;21.052;2023-06-26T05:31:45;15.53;;;8.53;;
47539;SDS011;33280;52.152;21.052;2023-06-26T05:34:17;14.33;;;9.07;;
47539;SDS011;33280;52.152;21.052;2023-06-26T05:36:50;16.40;;;9.50;;
47539;SDS011;33280;52.152;21.052;2023-06-26T05:39:18;15.27;;;8.97;;
47539;SDS011;33280;52.152;21.052;2023-06-26T05:41:45;13.60;;;8.23;;
47539;SDS011;33280;52.152;21.052;2023-06-26T05:44:13;13.87;;;8.60;;
47539;SDS011;33280;52.152;21.052;2023-06-26T05:46:40;13.90;;;8.97;;
47539;SDS011;33280;52.152;21.052;2023-06-26T05:49:07;12.80;;;8.10;;
47539;SDS011;33280;52.152;21.052;2023-06-26T05:51:34;14.23;;;8.00;;
47539;SDS011;33280;52.152;21.052;2023-06-26T05:54:01;12.03;;;8.07;;
47539;SDS011;33280;52.152;21.052;2023-06-26T05:56:29;11.77;;;7.70;;
47539;SDS011;33280;52.152;21.052;2023-06-26T05:58:57;12.10;;;8.03;;
47539;SDS011;33280;52.152;21.052;2023-06-26T06:01:24;16.83;;;7.87;;
47539;SDS011;33280;52.152;21.052;2023-06-26T06:03:51;13.03;;;7.53;;
47539;SDS011;33280;52.152;21.052;2023-06-26T06:06:18;12.27;;;7.10;;
47539;SDS011;33280;52.152;21.052;2023-06-26T06:08:45;12.87;;;7.63;;
47539;SDS011;33280;52.152;21.052;2023-06-26T06:11:14;14.23;;;7.30;;
47539;SDS011;33280;52.152;21.052;2023-06-26T06:13:41;13.73;;;7.50;;
47539;SDS011;33280;52.152;21.052;2023-06-26T06:16:09;11.57;;;7.03;;
47539;SDS011;33280;52.152;21.052;2023-06-26T06:18:36;11.70;;;7.57;;
47539;SDS011;33280;52.152;21.052;2023-06-26T06:21:03;12.77;;;7.20;;
47539;SDS011;33280;52.152;21.052;2023-06-26T06:23:30;9.53;;;6.57;;
47539;SDS011;33280;52.152;21.052;2023-06-26T06:25:56;12.27;;;6.93;;
47539;SDS011;33280;52.152;21.052;2023-06-26T06:28:23;9.80;;;5.10;;
47539;SDS011;33280;52.152;21.052;2023-06-26T06:30:50;9.07;;;5.93;;
47539;SDS011;33280;52.152;21.052;2023-06-26T06:33:18;14.40;;;7.03;;
47539;SDS011;33280;52.152;21.052;2023-06-26T06:35:44;9.70;;;6.03;;
47539;SDS011;33280;52.152;21.052;2023-06-26T06:38:11;11.33;;;6.93;;
47539;SDS011;33280;52.152;21.052;2023-06-26T06:40:38;11.37;;;6.07;;
47539;SDS011;33280;52.152;21.052;2023-06-26T06:43:06;10.57;;;6.20;;
47539;SDS011;33280;52.152;21.052;2023-06-26T06:45:33;10.80;;;5.90;;
47539;SDS011;33280;52.152;21.052;2023-06-26T06:48:00;8.47;;;5.70;;
47539;SDS011;33280;52.152;21.052;2023-06-26T06:50:27;9.93;;;5.40;;
47539;SDS011;33280;52.152;21.052;2023-06-26T06:52:53;6.40;;;5.20;;
47539;SDS011;33280;52.152;21.052;2023-06-26T06:55:20;8.47;;;5.67;;
47539;SDS011;33280;52.152;21.052;2023-06-26T06:57:47;8.80;;;5.80;;
47539;SDS011;33280;52.152;21.052;2023-06-26T07:00:14;11.47;;;5.80;;
47539;SDS011;33280;52.152;21.052;2023-06-26T07:02:43;8.93;;;5.50;;
47539;SDS011;33280;52.152;21.052;2023-06-26T07:05:11;9.23;;;5.53;;
47539;SDS011;33280;52.152;21.052;2023-06-26T07:07:38;8.10;;;5.63;;
47539;SDS011;33280;52.152;21.052;2023-06-26T07:10:08;10.13;;;5.70;;
47539;SDS011;33280;52.152;21.052;2023-06-26T07:12:37;10.73;;;5.95;;
47539;SDS011;33280;52.152;21.052;2023-06-26T07:15:04;11.93;;;5.93;;
47539;SDS011;33280;52.152;21.052;2023-06-26T07:17:32;9.47;;;5.83;;
47539;SDS011;33280;52.152;21.052;2023-06-26T07:20:01;10.80;;;6.20;;
47539;SDS011;33280;52.152;21.052;2023-06-26T07:22:31;8.57;;;5.90;;
47539;SDS011;33280;52.152;21.052;2023-06-26T07:24:59;12.70;;;5.90;;
47539;SDS011;33280;52.152;21.052;2023-06-26T07:27:26;8.38;;;5.38;;
47539;SDS011;33280;52.152;21.052;2023-06-26T07:29:53;9.97;;;5.20;;
47539;SDS011;33280;52.152;21.052;2023-06-26T07:32:20;8.00;;;5.20;;
47539;SDS011;33280;52.152;21.052;2023-06-26T07:34:46;8.37;;;5.33;;
47539;SDS011;33280;52.152;21.052;2023-06-26T07:37:13;9.63;;;5.03;;
47539;SDS011;33280;52.152;21.052;2023-06-26T07:39:40;10.27;;;5.10;;
47539;SDS011;33280;52.152;21.052;2023-06-26T07:42:07;7.68;;;4.97;;
47539;SDS011;33280;52.152;21.052;2023-06-26T07:44:34;6.95;;;4.90;;
47539;SDS011;33280;52.152;21.052;2023-06-26T07:47:01;11.57;;;5.25;;
47539;SDS011;33280;52.152;21.052;2023-06-26T07:49:28;7.23;;;4.60;;
47539;SDS011;33280;52.152;21.052;2023-06-26T07:51:55;7.40;;;4.80;;
47539;SDS011;33280;52.152;21.052;2023-06-26T07:54:22;11.57;;;5.23;;
47539;SDS011;33280;52.152;21.052;2023-06-26T07:56:56;7.22;;;4.50;;
47539;SDS011;33280;52.152;21.052;2023-06-26T07:59:28;7.60;;;4.82;;
47539;SDS011;33280;52.152;21.052;2023-06-26T08:01:57;7.40;;;5.30;;
47539;SDS011;33280;52.152;21.052;2023-06-26T08:04:25;8.82;;;4.95;;
47539;SDS011;33280;52.152;21.052;2023-06-26T08:06:54;8.77;;;4.97;;
47539;SDS011;33280;52.152;21.052;2023-06-26T08:09:23;8.40;;;4.68;;
47539;SDS011;33280;52.152;21.052;2023-06-26T08:11:51;10.70;;;4.68;;
47539;SDS011;33280;52.152;21.052;2023-06-26T08:14:18;9.27;;;4.97;;
47539;SDS011;33280;52.152;21.052;2023-06-26T08:16:46;9.55;;;4.90;;
47539;SDS011;33280;52.152;21.052;2023-06-26T08:19:13;8.65;;;4.72;;
47539;SDS011;33280;52.152;21.052;2023-06-26T08:21:41;8.50;;;5.10;;
47539;SDS011;33280;52.152;21.052;2023-06-26T08:24:12;5.93;;;4.28;;
47539;SDS011;33280;52.152;21.052;2023-06-26T08:26:39;6.45;;;4.68;;
47539;SDS011;33280;52.152;21.052;2023-06-26T08:29:06;6.45;;;4.63;;
47539;SDS011;33280;52.152;21.052;2023-06-26T08:31:38;6.07;;;4.43;;
47539;SDS011;33280;52.152;21.052;2023-06-26T08:34:07;8.50;;;4.10;;
47539;SDS011;33280;52.152;21.052;2023-06-26T08:36:34;5.53;;;3.92;;
47539;SDS011;33280;52.152;21.052;2023-06-26T08:39:01;5.82;;;4.25;;
47539;SDS011;33280;52.152;21.052;2023-06-26T08:41:29;6.63;;;4.10;;
47539;SDS011;33280;52.152;21.052;2023-06-26T08:43:56;8.88;;;4.00;;
47539;SDS011;33280;52.152;21.052;2023-06-26T08:46:23;10.05;;;3.83;;
47539;SDS011;33280;52.152;21.052;2023-06-26T08:49:05;5.78;;;3.65;;
47539;SDS011;33280;52.152;21.052;2023-06-26T08:51:40;5.82;;;4.00;;
47539;SDS011;33280;52.152;21.052;2023-06-26T08:54:11;7.03;;;4.03;;
47539;SDS011;33280;52.152;21.052;2023-06-26T08:56:42;6.20;;;3.50;;
47539;SDS011;33280;52.152;21.052;2023-06-26T08:59:10;5.28;;;3.78;;
47539;SDS011;33280;52.152;21.052;2023-06-26T09:01:39;6.53;;;4.00;;
47539;SDS011;33280;52.152;21.052;2023-06-26T09:04:07;4.75;;;3.53;;
47539;SDS011;33280;52.152;21.052;2023-06-26T09:06:34;8.93;;;4.15;;
47539;SDS011;33280;52.152;21.052;2023-06-26T09:09:00;5.57;;;3.75;;
47539;SDS011;33280;52.152;21.052;2023-06-26T09:11:27;4.28;;;3.20;;
47539;SDS011;33280;52.152;21.052;2023-06-26T09:13:55;5.97;;;3.15;;
47539;SDS011;33280;52.152;21.052;2023-06-26T09:16:25;5.55;;;3.47;;
47539;SDS011;33280;52.152;21.052;2023-06-26T09:18:53;7.82;;;3.65;;
47539;SDS011;33280;52.152;21.052;2023-06-26T09:21:22;7.05;;;3.90;;
47539;SDS011;33280;52.152;21.052;2023-06-26T09:23:50;7.22;;;3.72;;
47539;SDS011;33280;52.152;21.052;2023-06-26T09:26:19;4.25;;;3.58;;
47539;SDS011;33280;52.152;21.052;2023-06-26T09:28:48;7.43;;;3.83;;
47539;SDS011;33280;52.152;21.052;2023-06-26T09:31:16;6.47;;;4.05;;
47539;SDS011;33280;52.152;21.052;2023-06-26T09:34:03;5.22;;;3.55;;
47539;SDS011;33280;52.152;21.052;2023-06-26T09:36:32;5.70;;;3.85;;
47539;SDS011;33280;52.152;21.052;2023-06-26T09:39:03;6.45;;;4.22;;
47539;SDS011;33280;52.152;21.052;2023-06-26T09:41:35;7.28;;;3.88;;
47539;SDS011;33280;52.152;21.052;2023-06-26T09:44:02;5.93;;;3.90;;
47539;SDS011;33280;52.152;21.052;2023-06-26T09:46:30;7.45;;;4.28;;
47539;SDS011;33280;52.152;21.052;2023-06-26T09:49:01;7.53;;;4.35;;
47539;SDS011;33280;52.152;21.052;2023-06-26T09:51:32;5.38;;;4.35;;
47539;SDS011;33280;52.152;21.052;2023-06-26T09:54:01;9.35;;;4.15;;
47539;SDS011;33280;52.152;21.052;2023-06-26T09:56:29;7.63;;;3.90;;
47539;SDS011;33280;52.152;21.052;2023-06-26T09:58:57;5.40;;;4.22;;
47539;SDS011;33280;52.152;21.052;2023-06-26T10:01:25;4.95;;;3.85;;
47539;SDS011;33280;52.152;21.052;2023-06-26T10:03:54;6.20;;;4.00;;
47539;SDS011;33280;52.152;21.052;2023-06-26T10:06:27;7.95;;;4.65;;
47539;SDS011;33280;52.152;21.052;2023-06-26T10:09:07;5.45;;;4.15;;
47539;SDS011;33280;52.152;21.052;2023-06-26T10:11:57;6.20;;;4.25;;
47539;SDS011;33280;52.152;21.052;2023-06-26T10:14:36;5.80;;;4.30;;
47539;SDS011;33280;52.152;21.052;2023-06-26T10:17:07;5.45;;;4.10;;
47539;SDS011;33280;52.152;21.052;2023-06-26T10:19:37;5.85;;;3.97;;
47539;SDS011;33280;52.152;21.052;2023-06-26T10:22:06;6.85;;;4.22;;
47539;SDS011;33280;52.152;21.052;2023-06-26T10:24:35;5.35;;;4.25;;
47539;SDS011;33280;52.152;21.052;2023-06-26T10:27:19;7.65;;;4.47;;
47539;SDS011;33280;52.152;21.052;2023-06-26T10:29:47;5.68;;;4.20;;
47539;SDS011;33280;52.152;21.052;2023-06-26T10:32:25;5.20;;;3.90;;
47539;SDS011;33280;52.152;21.052;2023-06-26T10:34:54;6.47;;;4.22;;
47539;SDS011;33280;52.152;21.052;2023-06-26T10:37:41;5.65;;;4.28;;
47539;SDS011;33280;52.152;21.052;2023-06-26T10:40:10;5.15;;;3.88;;
47539;SDS011;33280;52.152;21.052;2023-06-26T10:42:39;5.53;;;3.88;;
47539;SDS011;33280;52.152;21.052;2023-06-26T10:45:13;6.25;;;4.15;;
47539;SDS011;33280;52.152;21.052;2023-06-26T10:47:44;4.88;;;3.80;;
47539;SDS011;33280;52.152;21.052;2023-06-26T10:55:36;5.13;;;3.28;;
47539;SDS011;33280;52.152;21.052;2023-06-26T10:58:03;5.82;;;3.75;;
47539;SDS011;33280;52.152;21.052;2023-06-26T11:00:30;5.13;;;3.33;;
47539;SDS011;33280;52.152;21.052;2023-06-26T11:02:58;7.65;;;4.15;;
47539;SDS011;33280;52.152;21.052;2023-06-26T11:05:28;5.18;;;3.85;;
47539;SDS011;33280;52.152;21.052;2023-06-26T11:08:02;4.78;;;3.92;;
47539;SDS011;33280;52.152;21.052;2023-06-26T11:10:50;5.88;;;4.07;;
47539;SDS011;33280;52.152;21.052;2023-06-26T11:13:20;4.00;;;3.30;;
47539;SDS011;33280;52.152;21.052;2023-06-26T11:15:48;5.28;;;4.20;;
47539;SDS011;33280;52.152;21.052;2023-06-26T11:18:16;6.60;;;4.05;;
47539;SDS011;33280;52.152;21.052;2023-06-26T11:20:43;6.57;;;4.18;;
47539;SDS011;33280;52.152;21.052;2023-06-26T11:23:10;5.22;;;4.20;;
47539;SDS011;33280;52.152;21.052;2023-06-26T11:25:38;7.90;;;4.20;;
47539;SDS011;33280;52.152;21.052;2023-06-26T11:28:05;7.65;;;4.30;;
47539;SDS011;33280;52.152;21.052;2023-06-26T11:30:35;5.35;;;4.10;;
47539;SDS011;33280;52.152;21.052;2023-06-26T11:33:08;5.47;;;3.80;;
47539;SDS011;33280;52.152;21.052;2023-06-26T11:35:36;6.63;;;4.57;;
47539;SDS011;33280;52.152;21.052;2023-06-26T11:38:04;10.45;;;4.53;;
47539;SDS011;33280;52.152;21.052;2023-06-26T11:40:33;5.13;;;3.92;;
47539;SDS011;33280;52.152;21.052;2023-06-26T11:43:02;6.35;;;4.10;;
47539;SDS011;33280;52.152;21.052;2023-06-26T11:45:30;7.22;;;4.05;;
47539;SDS011;33280;52.152;21.052;2023-06-26T11:47:58;8.20;;;3.80;;
47539;SDS011;33280;52.152;21.052;2023-06-26T11:50:27;6.80;;;4.00;;
47539;SDS011;33280;52.152;21.052;2023-06-26T11:52:55;7.93;;;4.38;;
47539;SDS011;33280;52.152;21.052;2023-06-26T11:55:25;4.65;;;3.55;;
47539;SDS011;33280;52.152;21.052;2023-06-26T11:57:53;5.03;;;3.50;;
47539;SDS011;33280;52.152;21.052;2023-06-26T12:00:21;6.53;;;3.88;;
47539;SDS011;33280;52.152;21.052;2023-06-26T12:02:49;7.82;;;4.05;;
47539;SDS011;33280;52.152;21.052;2023-06-26T12:05:18;3.78;;;3.40;;
47539;SDS011;33280;52.152;21.052;2023-06-26T12:07:47;4.75;;;3.67;;
47539;SDS011;33280;52.152;21.052;2023-06-26T12:10:15;4.72;;;3.60;;
47539;SDS011;33280;52.152;21.052;2023-06-26T12:12:43;4.43;;;3.50;;
47539;SDS011;33280;52.152;21.052;2023-06-26T12:15:13;5.90;;;3.67;;
47539;SDS011;33280;52.152;21.052;2023-06-26T12:17:42;5.18;;;3.33;;
47539;SDS011;33280;52.152;21.052;2023-06-26T12:20:21;4.47;;;3.60;;
47539;SDS011;33280;52.152;21.052;2023-06-26T12:22:48;4.30;;;3.50;;
47539;SDS011;33280;52.152;21.052;2023-06-26T12:25:21;5.93;;;3.55;;
47539;SDS011;33280;52.152;21.052;2023-06-26T12:27:50;4.15;;;3.17;;
47539;SDS011;33280;52.152;21.052;2023-06-26T12:30:17;5.03;;;3.50;;
47539;SDS011;33280;52.152;21.052;2023-06-26T12:32:44;4.68;;;3.40;;
47539;SDS011;33280;52.152;21.052;2023-06-26T12:35:13;4.32;;;3.28;;
47539;SDS011;33280;52.152;21.052;2023-06-26T12:37:42;5.03;;;3.25;;
47539;SDS011;33280;52.152;21.052;2023-06-26T12:40:20;5.82;;;3.45;;
47539;SDS011;33280;52.152;21.052;2023-06-26T12:42:50;3.88;;;3.00;;
47539;SDS011;33280;52.152;21.052;2023-06-26T12:45:17;3.70;;;3.17;;
47539;SDS011;33280;52.152;21.052;2023-06-26T12:47:46;3.83;;;2.95;;
47539;SDS011;33280;52.152;21.052;2023-06-26T12:50:14;4.65;;;3.17;;
47539;SDS011;33280;52.152;21.052;2023-06-26T12:52:43;4.20;;;3.10;;
47539;SDS011;33280;52.152;21.052;2023-06-26T12:55:10;5.93;;;2.90;;
47539;SDS011;33280;52.152;21.052;2023-06-26T12:57:37;4.00;;;3.10;;
47539;SDS011;33280;52.152;21.052;2023-06-26T13:00:04;4.78;;;3.20;;
47539;SDS011;33280;52.152;21.052;2023-06-26T13:02:31;3.22;;;2.90;;
47539;SDS011;33280;52.152;21.052;2023-06-26T13:04:58;4.22;;;3.20;;
47539;SDS011;33280;52.152;21.052;2023-06-26T13:07:25;3.65;;;3.10;;
47539;SDS011;33280;52.152;21.052;2023-06-26T13:09:52;3.80;;;3.10;;
47539;SDS011;33280;52.152;21.052;2023-06-26T13:12:19;5.68;;;3.70;;
47539;SDS011;33280;52.152;21.052;2023-06-26T13:14:46;4.18;;;2.97;;
47539;SDS011;33280;52.152;21.052;2023-06-26T13:17:14;6.85;;;3.30;;
47539;SDS011;33280;52.152;21.052;2023-06-26T13:19:41;3.63;;;3.10;;
47539;SDS011;33280;52.152;21.052;2023-06-26T13:22:08;8.05;;;3.67;;
47539;SDS011;33280;52.152;21.052;2023-06-26T13:24:35;5.45;;;3.30;;
47539;SDS011;33280;52.152;21.052;2023-06-26T13:27:02;5.05;;;3.22;;
47539;SDS011;33280;52.152;21.052;2023-06-26T13:29:29;3.80;;;3.35;;
47539;SDS011;33280;52.152;21.052;2023-06-26T13:31:57;3.95;;;3.20;;
47539;SDS011;33280;52.152;21.052;2023-06-26T13:34:24;7.70;;;3.78;;
47539;SDS011;33280;52.152;21.052;2023-06-26T13:36:54;4.82;;;3.60;;
47539;SDS011;33280;52.152;21.052;2023-06-26T13:39:21;5.50;;;4.05;;
47539;SDS011;33280;52.152;21.052;2023-06-26T13:41:48;6.80;;;3.70;;
47539;SDS011;33280;52.152;21.052;2023-06-26T13:44:15;5.28;;;3.53;;
47539;SDS011;33280;52.152;21.052;2023-06-26T13:47:02;6.72;;;3.70;;
47539;SDS011;33280;52.152;21.052;2023-06-26T13:49:29;4.57;;;3.40;;
47539;SDS011;33280;52.152;21.052;2023-06-26T13:51:56;7.72;;;3.70;;
47539;SDS011;33280;52.152;21.052;2023-06-26T13:54:23;4.82;;;3.50;;
47539;SDS011;33280;52.152;21.052;2023-06-26T13:56:50;4.75;;;3.60;;
47539;SDS011;33280;52.152;21.052;2023-06-26T13:59:17;3.90;;;3.38;;
47539;SDS011;33280;52.152;21.052;2023-06-26T14:01:47;7.35;;;3.40;;
47539;SDS011;33280;52.152;21.052;2023-06-26T14:04:14;4.32;;;3.40;;
47539;SDS011;33280;52.152;21.052;2023-06-26T14:06:41;5.57;;;3.72;;
47539;SDS011;33280;52.152;21.052;2023-06-26T14:09:08;6.80;;;3.65;;
47539;SDS011;33280;52.152;21.052;2023-06-26T14:11:35;4.53;;;3.67;;
47539;SDS011;33280;52.152;21.052;2023-06-26T14:14:03;6.15;;;3.63;;
47539;SDS011;33280;52.152;21.052;2023-06-26T14:16:29;6.00;;;3.33;;
47539;SDS011;33280;52.152;21.052;2023-06-26T14:18:58;4.53;;;3.30;;
47539;SDS011;33280;52.152;21.052;2023-06-26T14:21:25;5.20;;;3.83;;
47539;SDS011;33280;52.152;21.052;2023-06-26T14:23:57;4.95;;;3.53;;
47539;SDS011;33280;52.152;21.052;2023-06-26T14:26:24;5.68;;;3.22;;
47539;SDS011;33280;52.152;21.052;2023-06-26T14:28:51;5.32;;;3.55;;
47539;SDS011;33280;52.152;21.052;2023-06-26T14:31:18;3.92;;;3.15;;
47539;SDS011;33280;52.152;21.052;2023-06-26T14:33:45;5.78;;;3.50;;
47539;SDS011;33280;52.152;21.052;2023-06-26T14:36:12;4.15;;;3.30;;
47539;SDS011;33280;52.152;21.052;2023-06-26T14:38:39;3.80;;;3.22;;
47539;SDS011;33280;52.152;21.052;2023-06-26T14:41:06;5.57;;;3.58;;
47539;SDS011;33280;52.152;21.052;2023-06-26T14:43:33;5.15;;;3.70;;
47539;SDS011;33280;52.152;21.052;2023-06-26T14:46:01;4.78;;;3.40;;
47539;SDS011;33280;52.152;21.052;2023-06-26T14:48:28;5.18;;;3.53;;